Time;durP1;ratioP1;P1;durP2;ratioP2;P2;SDS_P1;SDS_P2;PMS_P1;PMS_P2;Temp;Humidity;BMP_temperature;BMP_pressure;BME280_temperature;BME280_humidity;BME280_pressure;Samples;Min_cycle;Max_cycle;Signal;HPM_P1;HPM_P2
2022/10/10 00:01:52;;;;;;;;;;;;;;;9.11;99.58;101758.69;10065998;29;19928;-70
2022/10/10 00:06:57;;;;;;;;;;;;;;;9.01;99.63;101756.78;10067112;29;19978;-71
2022/10/10 00:12:01;;;;;;;;;;;;;;;8.94;100.00;101756.63;10066752;29;19991;-74
2022/10/10 00:17:04;;;;;;;;;;;;;;;8.93;99.72;101753.19;10066412;29;19928;-76
2022/10/10 00:22:08;;;;;;;;;;;;;;;8.89;99.66;101756.56;10066438;29;19936;-71
2022/10/10 00:27:12;;;;;;;;;;;;;;;8.84;98.92;101754.72;10066118;29;19928;-74
2022/10/10 00:32:15;;;;;;;;;;;;;;;8.69;99.20;101752.72;10066019;29;20350;-72
2022/10/10 00:37:19;;;;;;;;;;;;;;;8.58;99.68;101764.56;10065383;29;19962;-71
2022/10/10 00:42:22;;;;;;;;;;;;;;;8.44;99.99;101752.22;10066842;29;19989;-72
2022/10/10 00:47:25;;;;;;;;;;;;;;;8.46;99.78;101743.63;10065534;29;19928;-72
2022/10/10 00:52:30;;;;;;;;;;;;;;;8.39;99.49;101746.06;10065184;29;20376;-72
2022/10/10 00:57:33;;;;;;;;;;;;;;;8.27;100.00;101744.06;10065275;29;19992;-72
2022/10/10 01:02:36;;;;;;;;;;;;;;;8.34;100.00;101738.19;10064482;29;20323;-71
2022/10/10 01:07:41;;;;;;;;;;;;;;;8.37;100.00;101738.25;10064704;29;20265;-73
2022/10/10 01:13:01;;;;;;;;;;;;;;;8.27;100.00;101745.78;10064398;29;19928;-69
2022/10/10 01:18:09;;;;;;;;;;;;;;;8.22;100.00;101748.25;10064268;29;19928;-72
2022/10/10 01:23:20;;;;;;;;;;;;;;;8.43;100.00;101742.69;10064229;29;19940;-74
2022/10/10 01:28:31;;;;;;;;;;;;;;;7.98;100.00;101745.13;10063911;29;20009;-71
2022/10/10 01:33:38;;;;;;;;;;;;;;;8.08;100.00;101741.91;10063743;29;20331;-73
2022/10/10 01:38:49;;;;;;;;;;;;;;;8.13;100.00;101745.44;10063738;29;19930;-72
2022/10/10 01:43:54;;;;;;;;;;;;;;;8.07;100.00;101747.91;10063535;29;20359;-71
2022/10/10 01:48:58;;;;;;;;;;;;;;;8.16;99.09;101748.13;10063249;29;20406;-73
2022/10/10 01:54:06;;;;;;;;;;;;;;;8.06;99.60;101740.97;10063442;29;20011;-72
2022/10/10 01:59:21;;;;;;;;;;;;;;;8.12;99.48;101747.19;10062993;29;19983;-73
2022/10/10 02:04:27;;;;;;;;;;;;;;;8.04;98.96;101733.19;10062722;29;19938;-71
2022/10/10 02:09:34;;;;;;;;;;;;;;;8.00;99.69;101749.50;10062579;29;19928;-73
2022/10/10 02:14:42;;;;;;;;;;;;;;;7.87;99.00;101744.88;10062298;29;20248;-71
2022/10/10 02:19:46;;;;;;;;;;;;;;;7.73;100.00;101741.09;10062384;29;19938;-71
2022/10/10 02:24:51;;;;;;;;;;;;;;;7.84;100.00;101744.81;10061395;29;19935;-73
2022/10/10 02:29:57;;;;;;;;;;;;;;;7.78;99.28;101743.81;10061890;29;20023;-72
2022/10/10 02:35:07;;;;;;;;;;;;;;;7.71;99.53;101745.38;10062028;29;19996;-73
2022/10/10 02:40:12;;;;;;;;;;;;;;;7.65;99.86;101741.75;10061888;29;19934;-74
2022/10/10 02:45:17;;;;;;;;;;;;;;;7.43;99.70;101735.22;10061942;29;19928;-70
2022/10/10 02:50:21;;;;;;;;;;;;;;;7.41;100.00;101730.81;10061749;29;20303;-72
2022/10/10 02:55:24;;;;;;;;;;;;;;;7.50;100.00;101728.47;10061542;29;19928;-71
2022/10/10 03:00:29;;;;;;;;;;;;;;;7.22;100.00;101733.78;10061289;29;19928;-72
2022/10/10 03:05:32;;;;;;;;;;;;;;;7.40;100.00;101723.94;10061485;29;20322;-69
2022/10/10 03:10:36;;;;;;;;;;;;;;;7.61;100.00;101721.88;10061288;29;20370;-75
2022/10/10 03:15:40;;;;;;;;;;;;;;;7.82;100.00;101722.34;10061221;29;19935;-70
2022/10/10 03:20:44;;;;;;;;;;;;;;;7.66;100.00;101715.09;10061538;29;19928;-70
2022/10/10 03:25:47;;;;;;;;;;;;;;;7.51;100.00;101719.88;10060892;29;20007;-69
2022/10/10 03:30:52;;;;;;;;;;;;;;;7.32;100.00;101728.00;10061063;29;19995;-71
2022/10/10 03:35:55;;;;;;;;;;;;;;;7.48;100.00;101736.19;9721905;29;9999803;-71
2022/10/10 03:40:58;;;;;;;;;;;;;;;7.40;100.00;101729.09;10065155;29;20405;-71
2022/10/10 03:46:03;;;;;;;;;;;;;;;7.53;100.00;101733.72;10064623;29;20243;-71
2022/10/10 03:54:21;;;;;;;;;;;;;;;21.13;55.43;101662.50;10534538;28;19913;-55
2022/10/10 03:59:24;;;;;;;;;;;;;;;20.93;58.79;101662.25;10533438;28;19924;-53
2022/10/10 04:04:27;;;;;;;;;;;;;;;20.85;56.36;101662.47;10534105;28;19928;-48
2022/10/10 04:09:32;;;;;;;;;;;;;;;20.81;55.34;101644.16;10534347;28;19952;-58
2022/10/10 04:18:03;;;;;;;;;;;;;;;21.33;52.08;101638.94;10619025;27;19911;-56
2022/10/10 04:23:06;;;;;;;;;;;;;;;20.99;54.17;101648.88;10618801;28;19928;-53
2022/10/10 04:28:11;;;;;;;;;;;;;;;20.95;54.40;101641.97;10618837;28;19934;-58
2022/10/10 04:33:15;;;;;;;;;;;;;;;20.89;56.13;101652.69;10618441;28;19996;-55
2022/10/10 04:38:20;;;;;;;;;;;;;;;20.76;61.59;101659.28;10618544;28;19980;-54
2022/10/10 04:43:23;;;;;;;;;;;;;;;20.51;48.11;101659.16;10618171;28;19927;-47
2022/10/10 04:48:27;;;;;;;;;;;;;;;18.90;63.89;101658.19;10617925;28;19930;-59
2022/10/10 04:53:30;;;;;;;;;;;;;;;19.89;65.57;101653.03;10617591;28;20046;-56
2022/10/10 04:58:33;;;;;;;;;;;;;;;20.23;69.16;101631.88;10617473;28;20054;-57
2022/10/10 05:03:38;;;;;;;;;;;;;;;20.35;68.25;101634.16;10617629;28;20027;-51
2022/10/10 05:08:41;;;;;;;;;;;;;;;20.42;67.76;101644.47;10617186;28;19927;-58
2022/10/10 05:13:44;;;;;;;;;;;;;;;20.54;67.44;101656.41;10616521;27;20272;-52
2022/10/10 05:18:48;;;;;;;;;;;;;;;20.57;68.79;101654.56;10643144;27;19927;-55
2022/10/10 05:23:51;;;;;;;;;;;;;;;20.62;74.78;101657.06;10659403;27;20006;-52
2022/10/10 05:28:54;;;;;;;;;;;;;;;20.68;73.29;101659.50;10632714;27;20417;-52
2022/10/10 05:33:59;;;;;;;;;;;;;;;20.76;74.30;101654.00;10628198;27;19927;-56
2022/10/10 05:39:02;;;;;;;;;;;;;;;20.84;72.47;101646.69;10585091;28;20592;-51
2022/10/10 05:44:05;;;;;;;;;;;;;;;20.91;73.77;101646.47;10587312;28;20015;-59
2022/10/10 05:49:09;;;;;;;;;;;;;;;18.76;48.10;101642.72;10586721;28;19923;-50
2022/10/10 05:54:12;;;;;;;;;;;;;;;19.58;69.03;101644.22;10586630;28;19928;-57
2022/10/10 06:03:06;;;;;;;;;;;;;;;22.83;47.94;101633.31;10619497;27;19912;-40
2022/10/10 06:08:09;;;;;;;;;;;;;;;23.35;45.39;101631.22;10618721;28;19923;-38
2022/10/10 06:13:15;;;;;;;;;;;;;;;23.56;45.70;101624.97;10618689;28;20010;-38
2022/10/10 06:18:25;;;;;;;;;;;;;;;21.92;42.73;101627.16;10618018;28;20368;-40
2022/10/10 06:23:28;;;;;;;;;;;;;;;22.98;42.45;101621.25;10618126;28;19980;-45
2022/10/10 06:28:32;;;;;;;;;;;;;;;23.32;42.55;101618.97;10617783;28;19928;-39
2022/10/10 06:33:37;;;;;;;;;;;;;;;23.56;43.97;101622.34;10618152;28;20026;-41
2022/10/10 06:38:40;;;;;;;;;;;;;;;23.57;44.44;101632.88;10617219;28;19961;-43
